Twigg, Illinois
Current Conditions -  °F | °C
As of 8:35 PM on Wednesday 22 Oct 2014 (Local Time) from KHSB Reporting Station
Clear Clear  
Wind Chill:   Ceiling: Unl
Heat Index:   Visibility: 10mi
Dew Point:   Wind: 3mph
Humidity: 88%   Direction: 60°ENE
Pressure: 30.24"   Gusts: NA
Location:  37.9948°N, 88.5401°W
Report Text: KHSB 230135Z AUTO 06003KT 10SM CLR 07/05 A3024 RMK AO2 T00670049
Loading
Personal Weather Stations






























Interactive Weather Map
Tropical Storm Tracking
New forecast layout! Learn more

10-Day Weather Forecast

Advertisements
Track Severe Weather on mobile